sensor_id;sensor_type;location;lat;lon;timestamp;P1;durP1;ratioP1;P2;durP2;ratioP2
42104;SDS011;70664;51.472;5.712;2023-11-22T00:01:30;5.78;;;4.00;;
42104;SDS011;70664;51.472;5.712;2023-11-22T00:03:56;5.85;;;4.18;;
42104;SDS011;70664;51.472;5.712;2023-11-22T00:06:22;6.70;;;4.22;;
42104;SDS011;70664;51.472;5.712;2023-11-22T00:08:48;8.88;;;4.15;;
42104;SDS011;70664;51.472;5.712;2023-11-22T00:11:14;6.28;;;4.00;;
42104;SDS011;70664;51.472;5.712;2023-11-22T00:13:40;5.88;;;4.10;;
42104;SDS011;70664;51.472;5.712;2023-11-22T00:16:06;5.80;;;3.85;;
42104;SDS011;70664;51.472;5.712;2023-11-22T00:18:34;7.32;;;4.45;;
42104;SDS011;70664;51.472;5.712;2023-11-22T00:21:03;6.47;;;3.90;;
42104;SDS011;70664;51.472;5.712;2023-11-22T00:23:29;6.80;;;4.18;;
42104;SDS011;70664;51.472;5.712;2023-11-22T00:25:55;6.15;;;4.30;;
42104;SDS011;70664;51.472;5.712;2023-11-22T00:28:24;7.45;;;4.32;;
42104;SDS011;70664;51.472;5.712;2023-11-22T00:30:50;6.03;;;4.03;;
42104;SDS011;70664;51.472;5.712;2023-11-22T00:33:16;6.63;;;3.97;;
42104;SDS011;70664;51.472;5.712;2023-11-22T00:35:45;5.75;;;4.10;;
42104;SDS011;70664;51.472;5.712;2023-11-22T00:38:11;6.97;;;4.18;;
42104;SDS011;70664;51.472;5.712;2023-11-22T00:40:37;6.20;;;4.28;;
42104;SDS011;70664;51.472;5.712;2023-11-22T00:43:02;6.43;;;4.03;;
42104;SDS011;70664;51.472;5.712;2023-11-22T00:45:28;5.68;;;3.90;;
42104;SDS011;70664;51.472;5.712;2023-11-22T00:47:54;7.30;;;4.22;;
42104;SDS011;70664;51.472;5.712;2023-11-22T00:50:20;6.05;;;3.97;;
42104;SDS011;70664;51.472;5.712;2023-11-22T00:52:47;5.63;;;4.15;;
42104;SDS011;70664;51.472;5.712;2023-11-22T00:55:13;6.60;;;4.15;;
42104;SDS011;70664;51.472;5.712;2023-11-22T00:57:39;4.70;;;3.80;;
42104;SDS011;70664;51.472;5.712;2023-11-22T01:00:05;8.23;;;3.80;;
42104;SDS011;70664;51.472;5.712;2023-11-22T01:02:36;5.07;;;3.75;;
42104;SDS011;70664;51.472;5.712;2023-11-22T01:05:04;5.03;;;3.55;;
42104;SDS011;70664;51.472;5.712;2023-11-22T01:07:40;6.13;;;3.97;;
42104;SDS011;70664;51.472;5.712;2023-11-22T01:10:07;5.85;;;3.65;;
42104;SDS011;70664;51.472;5.712;2023-11-22T01:12:33;6.30;;;4.00;;
42104;SDS011;70664;51.472;5.712;2023-11-22T01:14:59;10.57;;;4.10;;
42104;SDS011;70664;51.472;5.712;2023-11-22T01:17:24;7.32;;;4.18;;
42104;SDS011;70664;51.472;5.712;2023-11-22T01:19:50;4.88;;;3.63;;
42104;SDS011;70664;51.472;5.712;2023-11-22T01:22:17;5.00;;;3.70;;
42104;SDS011;70664;51.472;5.712;2023-11-22T01:24:43;4.57;;;3.42;;
42104;SDS011;70664;51.472;5.712;2023-11-22T01:27:09;6.30;;;3.60;;
42104;SDS011;70664;51.472;5.712;2023-11-22T01:29:34;6.00;;;4.00;;
42104;SDS011;70664;51.472;5.712;2023-11-22T01:32:01;4.68;;;3.50;;
42104;SDS011;70664;51.472;5.712;2023-11-22T01:34:27;5.50;;;3.80;;
42104;SDS011;70664;51.472;5.712;2023-11-22T01:36:54;5.35;;;3.70;;
42104;SDS011;70664;51.472;5.712;2023-11-22T01:39:20;5.38;;;3.67;;
42104;SDS011;70664;51.472;5.712;2023-11-22T01:41:46;5.40;;;3.90;;
42104;SDS011;70664;51.472;5.712;2023-11-22T01:44:14;6.20;;;3.88;;
42104;SDS011;70664;51.472;5.712;2023-11-22T01:46:41;6.28;;;4.03;;
42104;SDS011;70664;51.472;5.712;2023-11-22T01:49:09;4.95;;;3.40;;
42104;SDS011;70664;51.472;5.712;2023-11-22T01:51:35;5.32;;;3.58;;
42104;SDS011;70664;51.472;5.712;2023-11-22T01:54:05;5.03;;;3.30;;
42104;SDS011;70664;51.472;5.712;2023-11-22T01:56:35;5.63;;;3.72;;
42104;SDS011;70664;51.472;5.712;2023-11-22T01:59:02;5.30;;;3.63;;
42104;SDS011;70664;51.472;5.712;2023-11-22T02:01:29;5.47;;;3.83;;
42104;SDS011;70664;51.472;5.712;2023-11-22T02:03:56;4.68;;;3.35;;
42104;SDS011;70664;51.472;5.712;2023-11-22T02:06:23;4.75;;;3.35;;
42104;SDS011;70664;51.472;5.712;2023-11-22T02:08:49;5.57;;;3.85;;
42104;SDS011;70664;51.472;5.712;2023-11-22T02:11:18;4.80;;;3.65;;
42104;SDS011;70664;51.472;5.712;2023-11-22T02:13:49;5.93;;;3.67;;
42104;SDS011;70664;51.472;5.712;2023-11-22T02:16:16;6.70;;;3.58;;
42104;SDS011;70664;51.472;5.712;2023-11-22T02:18:45;4.85;;;3.42;;
42104;SDS011;70664;51.472;5.712;2023-11-22T02:21:13;5.63;;;3.47;;
42104;SDS011;70664;51.472;5.712;2023-11-22T02:23:40;4.22;;;3.22;;
42104;SDS011;70664;51.472;5.712;2023-11-22T02:26:07;4.13;;;3.40;;
42104;SDS011;70664;51.472;5.712;2023-11-22T02:28:33;4.85;;;3.50;;
42104;SDS011;70664;51.472;5.712;2023-11-22T02:30:59;4.57;;;3.50;;
42104;SDS011;70664;51.472;5.712;2023-11-22T02:33:24;3.90;;;3.10;;
42104;SDS011;70664;51.472;5.712;2023-11-22T02:35:50;5.97;;;3.40;;
42104;SDS011;70664;51.472;5.712;2023-11-22T02:38:16;5.85;;;3.50;;
42104;SDS011;70664;51.472;5.712;2023-11-22T02:40:45;4.50;;;3.45;;
42104;SDS011;70664;51.472;5.712;2023-11-22T02:43:11;4.70;;;3.30;;
42104;SDS011;70664;51.472;5.712;2023-11-22T02:45:37;5.70;;;3.70;;
42104;SDS011;70664;51.472;5.712;2023-11-22T02:48:03;4.32;;;3.08;;
42104;SDS011;70664;51.472;5.712;2023-11-22T02:50:34;4.35;;;3.22;;
42104;SDS011;70664;51.472;5.712;2023-11-22T02:53:02;4.40;;;3.20;;
42104;SDS011;70664;51.472;5.712;2023-11-22T02:55:28;4.38;;;3.47;;
42104;SDS011;70664;51.472;5.712;2023-11-22T02:57:54;4.65;;;3.17;;
42104;SDS011;70664;51.472;5.712;2023-11-22T03:00:20;4.10;;;3.00;;
42104;SDS011;70664;51.472;5.712;2023-11-22T03:02:46;3.92;;;3.10;;
42104;SDS011;70664;51.472;5.712;2023-11-22T03:05:15;4.45;;;3.28;;
42104;SDS011;70664;51.472;5.712;2023-11-22T03:07:41;4.20;;;3.20;;
42104;SDS011;70664;51.472;5.712;2023-11-22T03:10:07;4.15;;;3.03;;
42104;SDS011;70664;51.472;5.712;2023-11-22T03:12:34;4.13;;;3.42;;
42104;SDS011;70664;51.472;5.712;2023-11-22T03:15:00;4.00;;;3.00;;
42104;SDS011;70664;51.472;5.712;2023-11-22T03:17:27;4.65;;;3.03;;
42104;SDS011;70664;51.472;5.712;2023-11-22T03:19:55;4.63;;;3.33;;
42104;SDS011;70664;51.472;5.712;2023-11-22T03:22:25;4.43;;;3.00;;
42104;SDS011;70664;51.472;5.712;2023-11-22T03:24:55;4.05;;;3.15;;
42104;SDS011;70664;51.472;5.712;2023-11-22T03:27:21;4.05;;;3.05;;
42104;SDS011;70664;51.472;5.712;2023-11-22T03:29:48;3.85;;;3.05;;
42104;SDS011;70664;51.472;5.712;2023-11-22T03:32:14;3.58;;;2.88;;
42104;SDS011;70664;51.472;5.712;2023-11-22T03:34:40;3.58;;;2.85;;
42104;SDS011;70664;51.472;5.712;2023-11-22T03:37:06;4.60;;;2.97;;
42104;SDS011;70664;51.472;5.712;2023-11-22T03:39:32;3.75;;;2.70;;
42104;SDS011;70664;51.472;5.712;2023-11-22T03:41:58;3.58;;;3.08;;
42104;SDS011;70664;51.472;5.712;2023-11-22T03:44:23;4.80;;;3.38;;
42104;SDS011;70664;51.472;5.712;2023-11-22T03:46:50;4.72;;;2.78;;
42104;SDS011;70664;51.472;5.712;2023-11-22T03:49:16;4.95;;;2.83;;
42104;SDS011;70664;51.472;5.712;2023-11-22T03:51:43;3.88;;;3.00;;
42104;SDS011;70664;51.472;5.712;2023-11-22T03:54:08;4.22;;;3.20;;
42104;SDS011;70664;51.472;5.712;2023-11-22T03:56:35;3.85;;;3.20;;
42104;SDS011;70664;51.472;5.712;2023-11-22T03:59:01;4.57;;;3.30;;
42104;SDS011;70664;51.472;5.712;2023-11-22T04:01:28;4.57;;;3.30;;
42104;SDS011;70664;51.472;5.712;2023-11-22T04:03:54;3.58;;;2.92;;
42104;SDS011;70664;51.472;5.712;2023-11-22T04:06:20;3.65;;;3.08;;
42104;SDS011;70664;51.472;5.712;2023-11-22T04:08:46;3.38;;;3.08;;
42104;SDS011;70664;51.472;5.712;2023-11-22T04:11:13;3.88;;;2.53;;
42104;SDS011;70664;51.472;5.712;2023-11-22T04:13:38;4.05;;;3.05;;
42104;SDS011;70664;51.472;5.712;2023-11-22T04:16:05;3.25;;;2.70;;
42104;SDS011;70664;51.472;5.712;2023-11-22T04:18:36;4.25;;;3.05;;
42104;SDS011;70664;51.472;5.712;2023-11-22T04:21:08;3.47;;;2.85;;
42104;SDS011;70664;51.472;5.712;2023-11-22T04:23:34;3.38;;;2.80;;
42104;SDS011;70664;51.472;5.712;2023-11-22T04:26:01;4.20;;;3.20;;
42104;SDS011;70664;51.472;5.712;2023-11-22T04:28:27;3.45;;;2.85;;
42104;SDS011;70664;51.472;5.712;2023-11-22T04:30:57;4.22;;;3.13;;
42104;SDS011;70664;51.472;5.712;2023-11-22T04:33:23;3.10;;;2.65;;
42104;SDS011;70664;51.472;5.712;2023-11-22T04:35:50;3.65;;;3.00;;
42104;SDS011;70664;51.472;5.712;2023-11-22T04:38:16;4.93;;;3.00;;
42104;SDS011;70664;51.472;5.712;2023-11-22T04:40:42;3.42;;;2.80;;
42104;SDS011;70664;51.472;5.712;2023-11-22T04:43:09;3.88;;;2.90;;
42104;SDS011;70664;51.472;5.712;2023-11-22T04:45:35;4.95;;;2.88;;
42104;SDS011;70664;51.472;5.712;2023-11-22T04:48:01;3.10;;;2.80;;
42104;SDS011;70664;51.472;5.712;2023-11-22T04:50:27;3.90;;;2.83;;
42104;SDS011;70664;51.472;5.712;2023-11-22T04:52:53;2.88;;;2.55;;
42104;SDS011;70664;51.472;5.712;2023-11-22T04:55:19;4.28;;;2.92;;
42104;SDS011;70664;51.472;5.712;2023-11-22T04:57:45;4.57;;;3.00;;
42104;SDS011;70664;51.472;5.712;2023-11-22T05:00:12;3.38;;;2.85;;
42104;SDS011;70664;51.472;5.712;2023-11-22T05:02:38;3.35;;;2.90;;
42104;SDS011;70664;51.472;5.712;2023-11-22T05:05:07;3.72;;;3.00;;
42104;SDS011;70664;51.472;5.712;2023-11-22T05:07:36;3.45;;;2.85;;
42104;SDS011;70664;51.472;5.712;2023-11-22T05:10:03;3.83;;;2.83;;
42104;SDS011;70664;51.472;5.712;2023-11-22T05:12:30;4.88;;;2.80;;
42104;SDS011;70664;51.472;5.712;2023-11-22T05:14:57;3.75;;;3.05;;
42104;SDS011;70664;51.472;5.712;2023-11-22T05:17:22;4.53;;;2.72;;
42104;SDS011;70664;51.472;5.712;2023-11-22T05:19:49;4.03;;;3.25;;
42104;SDS011;70664;51.472;5.712;2023-11-22T05:22:15;3.88;;;2.85;;
42104;SDS011;70664;51.472;5.712;2023-11-22T05:24:41;3.47;;;2.80;;
42104;SDS011;70664;51.472;5.712;2023-11-22T05:27:07;2.75;;;2.53;;
42104;SDS011;70664;51.472;5.712;2023-11-22T05:29:34;3.58;;;2.80;;
42104;SDS011;70664;51.472;5.712;2023-11-22T05:32:01;3.05;;;2.65;;
42104;SDS011;70664;51.472;5.712;2023-11-22T05:34:28;3.13;;;2.70;;
42104;SDS011;70664;51.472;5.712;2023-11-22T05:36:54;3.05;;;2.75;;
42104;SDS011;70664;51.472;5.712;2023-11-22T05:39:20;3.38;;;2.92;;
42104;SDS011;70664;51.472;5.712;2023-11-22T05:41:47;3.13;;;2.80;;
42104;SDS011;70664;51.472;5.712;2023-11-22T05:44:13;3.15;;;2.70;;
42104;SDS011;70664;51.472;5.712;2023-11-22T05:46:40;3.70;;;2.72;;
42104;SDS011;70664;51.472;5.712;2023-11-22T05:49:05;3.72;;;2.95;;
42104;SDS011;70664;51.472;5.712;2023-11-22T05:51:32;3.33;;;2.83;;
42104;SDS011;70664;51.472;5.712;2023-11-22T05:53:58;3.03;;;2.67;;
42104;SDS011;70664;51.472;5.712;2023-11-22T05:56:25;3.65;;;2.70;;
42104;SDS011;70664;51.472;5.712;2023-11-22T05:58:51;2.90;;;2.60;;
42104;SDS011;70664;51.472;5.712;2023-11-22T06:01:17;4.32;;;2.75;;
42104;SDS011;70664;51.472;5.712;2023-11-22T06:03:43;3.22;;;2.90;;
42104;SDS011;70664;51.472;5.712;2023-11-22T06:06:08;3.75;;;2.72;;
42104;SDS011;70664;51.472;5.712;2023-11-22T06:08:34;3.92;;;2.90;;
42104;SDS011;70664;51.472;5.712;2023-11-22T06:11:00;3.90;;;3.15;;
42104;SDS011;70664;51.472;5.712;2023-11-22T06:13:26;3.78;;;3.05;;
42104;SDS011;70664;51.472;5.712;2023-11-22T06:15:52;3.10;;;2.80;;
42104;SDS011;70664;51.472;5.712;2023-11-22T06:18:18;3.42;;;2.67;;
42104;SDS011;70664;51.472;5.712;2023-11-22T06:20:44;3.40;;;2.50;;
42104;SDS011;70664;51.472;5.712;2023-11-22T06:23:12;3.30;;;2.78;;
42104;SDS011;70664;51.472;5.712;2023-11-22T06:25:38;4.90;;;2.90;;
42104;SDS011;70664;51.472;5.712;2023-11-22T06:28:07;3.10;;;2.70;;
42104;SDS011;70664;51.472;5.712;2023-11-22T06:30:33;3.58;;;3.05;;
42104;SDS011;70664;51.472;5.712;2023-11-22T06:32:59;3.17;;;2.80;;
42104;SDS011;70664;51.472;5.712;2023-11-22T06:35:26;3.13;;;2.83;;
42104;SDS011;70664;51.472;5.712;2023-11-22T06:37:52;3.22;;;2.80;;
42104;SDS011;70664;51.472;5.712;2023-11-22T06:40:18;3.17;;;2.80;;
42104;SDS011;70664;51.472;5.712;2023-11-22T06:42:45;3.45;;;2.90;;
42104;SDS011;70664;51.472;5.712;2023-11-22T06:45:11;3.63;;;2.92;;
42104;SDS011;70664;51.472;5.712;2023-11-22T06:47:38;3.50;;;3.17;;
42104;SDS011;70664;51.472;5.712;2023-11-22T06:50:05;3.50;;;2.95;;
42104;SDS011;70664;51.472;5.712;2023-11-22T06:52:34;3.38;;;3.00;;
42104;SDS011;70664;51.472;5.712;2023-11-22T06:55:04;3.65;;;3.00;;
42104;SDS011;70664;51.472;5.712;2023-11-22T06:57:33;3.47;;;3.08;;
42104;SDS011;70664;51.472;5.712;2023-11-22T07:00:00;2.72;;;2.40;;
42104;SDS011;70664;51.472;5.712;2023-11-22T07:02:33;3.55;;;2.80;;
42104;SDS011;70664;51.472;5.712;2023-11-22T07:05:02;3.45;;;3.10;;
42104;SDS011;70664;51.472;5.712;2023-11-22T07:07:32;3.80;;;2.88;;
42104;SDS011;70664;51.472;5.712;2023-11-22T07:09:58;4.28;;;3.35;;
42104;SDS011;70664;51.472;5.712;2023-11-22T07:12:24;3.22;;;2.90;;
42104;SDS011;70664;51.472;5.712;2023-11-22T07:14:51;3.20;;;2.90;;
42104;SDS011;70664;51.472;5.712;2023-11-22T07:17:17;3.17;;;2.67;;
42104;SDS011;70664;51.472;5.712;2023-11-22T07:19:43;3.80;;;3.13;;
42104;SDS011;70664;51.472;5.712;2023-11-22T07:22:13;3.85;;;3.10;;
42104;SDS011;70664;51.472;5.712;2023-11-22T07:24:47;3.72;;;3.35;;
42104;SDS011;70664;51.472;5.712;2023-11-22T07:27:19;3.83;;;3.30;;
42104;SDS011;70664;51.472;5.712;2023-11-22T07:29:45;3.20;;;2.90;;
42104;SDS011;70664;51.472;5.712;2023-11-22T07:32:12;3.58;;;3.08;;
42104;SDS011;70664;51.472;5.712;2023-11-22T07:34:39;3.72;;;3.28;;
42104;SDS011;70664;51.472;5.712;2023-11-22T07:37:06;3.50;;;3.00;;
42104;SDS011;70664;51.472;5.712;2023-11-22T07:39:32;4.95;;;3.40;;
42104;SDS011;70664;51.472;5.712;2023-11-22T07:42:03;3.67;;;3.08;;
42104;SDS011;70664;51.472;5.712;2023-11-22T07:44:32;3.97;;;2.90;;
42104;SDS011;70664;51.472;5.712;2023-11-22T07:47:00;4.57;;;3.22;;
42104;SDS011;70664;51.472;5.712;2023-11-22T07:49:27;5.13;;;3.40;;
42104;SDS011;70664;51.472;5.712;2023-11-22T07:51:54;3.83;;;3.22;;
42104;SDS011;70664;51.472;5.712;2023-11-22T07:54:21;6.35;;;3.33;;
42104;SDS011;70664;51.472;5.712;2023-11-22T07:56:51;4.40;;;3.00;;
42104;SDS011;70664;51.472;5.712;2023-11-22T07:59:21;4.35;;;3.70;;
42104;SDS011;70664;51.472;5.712;2023-11-22T08:01:46;8.48;;;3.28;;
42104;SDS011;70664;51.472;5.712;2023-11-22T08:04:13;4.47;;;3.10;;
42104;SDS011;70664;51.472;5.712;2023-11-22T08:06:39;4.78;;;3.05;;
42104;SDS011;70664;51.472;5.712;2023-11-22T08:09:05;7.10;;;3.83;;
42104;SDS011;70664;51.472;5.712;2023-11-22T08:11:33;5.18;;;3.45;;
42104;SDS011;70664;51.472;5.712;2023-11-22T08:14:00;4.65;;;3.55;;
42104;SDS011;70664;51.472;5.712;2023-11-22T08:16:27;4.35;;;3.35;;
42104;SDS011;70664;51.472;5.712;2023-11-22T08:18:53;4.78;;;3.45;;
42104;SDS011;70664;51.472;5.712;2023-11-22T08:21:19;5.53;;;3.35;;
42104;SDS011;70664;51.472;5.712;2023-11-22T08:23:47;5.82;;;4.10;;
42104;SDS011;70664;51.472;5.712;2023-11-22T08:26:14;6.82;;;3.63;;
42104;SDS011;70664;51.472;5.712;2023-11-22T08:28:40;6.20;;;4.00;;
42104;SDS011;70664;51.472;5.712;2023-11-22T08:31:06;4.47;;;3.47;;
42104;SDS011;70664;51.472;5.712;2023-11-22T08:33:34;5.50;;;3.58;;
42104;SDS011;70664;51.472;5.712;2023-11-22T08:36:06;5.25;;;3.80;;
42104;SDS011;70664;51.472;5.712;2023-11-22T08:38:34;4.85;;;3.92;;
42104;SDS011;70664;51.472;5.712;2023-11-22T08:41:01;6.88;;;3.92;;
42104;SDS011;70664;51.472;5.712;2023-11-22T08:43:31;5.68;;;3.97;;
42104;SDS011;70664;51.472;5.712;2023-11-22T08:45:57;5.43;;;3.97;;
42104;SDS011;70664;51.472;5.712;2023-11-22T08:48:24;6.10;;;4.40;;
42104;SDS011;70664;51.472;5.712;2023-11-22T08:50:50;5.07;;;4.03;;
42104;SDS011;70664;51.472;5.712;2023-11-22T08:53:18;5.32;;;3.85;;
42104;SDS011;70664;51.472;5.712;2023-11-22T08:55:45;7.40;;;4.10;;
42104;SDS011;70664;51.472;5.712;2023-11-22T08:58:12;4.85;;;3.83;;
42104;SDS011;70664;51.472;5.712;2023-11-22T09:00:38;6.80;;;4.10;;
42104;SDS011;70664;51.472;5.712;2023-11-22T09:03:06;5.85;;;4.15;;
42104;SDS011;70664;51.472;5.712;2023-11-22T09:05:33;6.07;;;4.10;;
42104;SDS011;70664;51.472;5.712;2023-11-22T09:07:59;5.32;;;4.18;;
42104;SDS011;70664;51.472;5.712;2023-11-22T09:10:25;9.30;;;4.68;;
42104;SDS011;70664;51.472;5.712;2023-11-22T09:12:52;6.82;;;4.80;;
42104;SDS011;70664;51.472;5.712;2023-11-22T09:15:18;7.47;;;4.30;;
42104;SDS011;70664;51.472;5.712;2023-11-22T09:17:51;5.47;;;4.10;;
42104;SDS011;70664;51.472;5.712;2023-11-22T09:20:18;6.55;;;4.72;;
42104;SDS011;70664;51.472;5.712;2023-11-22T09:22:45;6.72;;;4.68;;
42104;SDS011;70664;51.472;5.712;2023-11-22T09:25:14;6.97;;;4.47;;
42104;SDS011;70664;51.472;5.712;2023-11-22T09:27:45;6.22;;;4.70;;
42104;SDS011;70664;51.472;5.712;2023-11-22T09:30:16;5.55;;;4.68;;
42104;SDS011;70664;51.472;5.712;2023-11-22T09:33:04;6.32;;;4.82;;
42104;SDS011;70664;51.472;5.712;2023-11-22T09:35:32;5.75;;;4.63;;
42104;SDS011;70664;51.472;5.712;2023-11-22T09:38:03;6.35;;;4.60;;
42104;SDS011;70664;51.472;5.712;2023-11-22T09:40:46;7.35;;;5.10;;
42104;SDS011;70664;51.472;5.712;2023-11-22T09:43:17;8.05;;;5.53;;
42104;SDS011;70664;51.472;5.712;2023-11-22T09:45:45;7.78;;;5.05;;
42104;SDS011;70664;51.472;5.712;2023-11-22T09:48:19;6.88;;;5.10;;
42104;SDS011;70664;51.472;5.712;2023-11-22T09:56:22;8.52;;;5.68;;
42104;SDS011;70664;51.472;5.712;2023-11-22T09:58:53;7.53;;;5.45;;
42104;SDS011;70664;51.472;5.712;2023-11-22T10:01:22;6.45;;;5.07;;
42104;SDS011;70664;51.472;5.712;2023-11-22T10:03:48;7.78;;;5.60;;
42104;SDS011;70664;51.472;5.712;2023-11-22T10:06:15;8.35;;;5.68;;
42104;SDS011;70664;51.472;5.712;2023-11-22T10:08:43;8.07;;;5.70;;
42104;SDS011;70664;51.472;5.712;2023-11-22T10:11:14;9.75;;;6.68;;
42104;SDS011;70664;51.472;5.712;2023-11-22T10:13:43;22.38;;;6.32;;
42104;SDS011;70664;51.472;5.712;2023-11-22T10:16:13;8.73;;;5.72;;
42104;SDS011;70664;51.472;5.712;2023-11-22T10:18:44;8.25;;;6.32;;
42104;SDS011;70664;51.472;5.712;2023-11-22T10:21:18;8.32;;;5.47;;
42104;SDS011;70664;51.472;5.712;2023-11-22T10:23:46;9.63;;;6.13;;
42104;SDS011;70664;51.472;5.712;2023-11-22T10:26:13;7.35;;;5.75;;
42104;SDS011;70664;51.472;5.712;2023-11-22T10:28:40;9.05;;;6.35;;
42104;SDS011;70664;51.472;5.712;2023-11-22T10:31:08;8.63;;;6.35;;
42104;SDS011;70664;51.472;5.712;2023-11-22T10:33:38;9.57;;;6.55;;
42104;SDS011;70664;51.472;5.712;2023-11-22T10:36:07;8.40;;;6.10;;
42104;SDS011;70664;51.472;5.712;2023-11-22T10:38:34;10.30;;;6.20;;
42104;SDS011;70664;51.472;5.712;2023-11-22T10:41:04;8.23;;;6.60;;
42104;SDS011;70664;51.472;5.712;2023-11-22T10:43:32;8.07;;;6.22;;
42104;SDS011;70664;51.472;5.712;2023-11-22T10:46:03;8.63;;;6.38;;
42104;SDS011;70664;51.472;5.712;2023-11-22T10:51:01;8.10;;;5.97;;
42104;SDS011;70664;51.472;5.712;2023-11-22T10:53:31;9.45;;;6.85;;
42104;SDS011;70664;51.472;5.712;2023-11-22T10:56:03;10.45;;;7.10;;
42104;SDS011;70664;51.472;5.712;2023-11-22T10:59:13;10.75;;;7.47;;
42104;SDS011;70664;51.472;5.712;2023-11-22T11:01:47;11.05;;;7.82;;
42104;SDS011;70664;51.472;5.712;2023-11-22T11:04:38;10.55;;;7.00;;
42104;SDS011;70664;51.472;5.712;2023-11-22T11:07:10;13.00;;;7.65;;
42104;SDS011;70664;51.472;5.712;2023-11-22T11:09:40;9.60;;;7.07;;
42104;SDS011;70664;51.472;5.712;2023-11-22T11:12:07;10.70;;;7.60;;
42104;SDS011;70664;51.472;5.712;2023-11-22T11:14:34;11.77;;;7.47;;
42104;SDS011;70664;51.472;5.712;2023-11-22T11:17:01;10.48;;;7.18;;
42104;SDS011;70664;51.472;5.712;2023-11-22T11:19:27;11.32;;;7.68;;
42104;SDS011;70664;51.472;5.712;2023-11-22T11:21:54;10.32;;;7.38;;
42104;SDS011;70664;51.472;5.712;2023-11-22T11:24:23;10.80;;;7.10;;
42104;SDS011;70664;51.472;5.712;2023-11-22T11:26:49;10.07;;;7.32;;
42104;SDS011;70664;51.472;5.712;2023-11-22T11:29:37;10.35;;;7.43;;
42104;SDS011;70664;51.472;5.712;2023-11-22T11:32:11;9.57;;;7.25;;
42104;SDS011;70664;51.472;5.712;2023-11-22T11:34:58;10.50;;;7.63;;
42104;SDS011;70664;51.472;5.712;2023-11-22T11:37:25;12.20;;;7.15;;
42104;SDS011;70664;51.472;5.712;2023-11-22T11:39:55;9.98;;;8.07;;
42104;SDS011;70664;51.472;5.712;2023-11-22T11:42:22;12.23;;;8.52;;
42104;SDS011;70664;51.472;5.712;2023-11-22T11:45:04;12.75;;;8.80;;
42104;SDS011;70664;51.472;5.712;2023-11-22T11:47:31;11.00;;;7.97;;
42104;SDS011;70664;51.472;5.712;2023-11-22T11:49:58;13.38;;;8.30;;
42104;SDS011;70664;51.472;5.712;2023-11-22T11:52:25;12.50;;;8.68;;
42104;SDS011;70664;51.472;5.712;2023-11-22T11:54:51;13.77;;;8.32;;
42104;SDS011;70664;51.472;5.712;2023-11-22T11:57:17;11.25;;;7.97;;
42104;SDS011;70664;51.472;5.712;2023-11-22T11:59:43;10.95;;;8.02;;
42104;SDS011;70664;51.472;5.712;2023-11-22T12:02:11;12.55;;;8.75;;
42104;SDS011;70664;51.472;5.712;2023-11-22T12:04:37;13.98;;;8.85;;
42104;SDS011;70664;51.472;5.712;2023-11-22T12:07:02;12.70;;;8.80;;
42104;SDS011;70664;51.472;5.712;2023-11-22T12:09:32;17.88;;;9.13;;
42104;SDS011;70664;51.472;5.712;2023-11-22T12:12:00;11.85;;;8.38;;
42104;SDS011;70664;51.472;5.712;2023-11-22T12:14:29;10.07;;;7.68;;
42104;SDS011;70664;51.472;5.712;2023-11-22T12:16:56;12.75;;;8.73;;
42104;SDS011;70664;51.472;5.712;2023-11-22T12:19:24;12.88;;;8.75;;
42104;SDS011;70664;51.472;5.712;2023-11-22T12:21:53;13.13;;;8.70;;
42104;SDS011;70664;51.472;5.712;2023-11-22T12:24:19;12.35;;;8.52;;
42104;SDS011;70664;51.472;5.712;2023-11-22T12:26:45;13.48;;;8.95;;
42104;SDS011;70664;51.472;5.712;2023-11-22T12:29:14;13.88;;;9.60;;
42104;SDS011;70664;51.472;5.712;2023-11-22T12:31:44;11.43;;;8.43;;
42104;SDS011;70664;51.472;5.712;2023-11-22T12:34:20;13.98;;;9.20;;
42104;SDS011;70664;51.472;5.712;2023-11-22T12:36:47;11.73;;;8.60;;
42104;SDS011;70664;51.472;5.712;2023-11-22T12:39:13;12.02;;;8.70;;
42104;SDS011;70664;51.472;5.712;2023-11-22T12:41:47;12.43;;;9.23;;
42104;SDS011;70664;51.472;5.712;2023-11-22T12:44:15;11.25;;;8.35;;
42104;SDS011;70664;51.472;5.712;2023-11-22T12:49:21;13.40;;;9.30;;
42104;SDS011;70664;51.472;5.712;2023-11-22T12:51:48;12.98;;;9.60;;
42104;SDS011;70664;51.472;5.712;2023-11-22T12:54:19;16.23;;;9.90;;
42104;SDS011;70664;51.472;5.712;2023-11-22T12:56:53;14.38;;;10.20;;
42104;SDS011;70664;51.472;5.712;2023-11-22T12:59:23;14.48;;;10.30;;
42104;SDS011;70664;51.472;5.712;2023-11-22T13:01:52;14.00;;;9.98;;
42104;SDS011;70664;51.472;5.712;2023-11-22T13:04:19;16.15;;;10.73;;
42104;SDS011;70664;51.472;5.712;2023-11-22T13:06:45;14.38;;;10.35;;
42104;SDS011;70664;51.472;5.712;2023-11-22T13:09:11;13.50;;;10.27;;
42104;SDS011;70664;51.472;5.712;2023-11-22T13:11:41;13.65;;;10.05;;
42104;SDS011;70664;51.472;5.712;2023-11-22T13:14:08;13.52;;;10.00;;
42104;SDS011;70664;51.472;5.712;2023-11-22T13:16:34;15.13;;;10.18;;
42104;SDS011;70664;51.472;5.712;2023-11-22T13:19:03;14.77;;;10.35;;
42104;SDS011;70664;51.472;5.712;2023-11-22T13:21:29;14.50;;;9.80;;
42104;SDS011;70664;51.472;5.712;2023-11-22T13:23:56;16.60;;;9.73;;
42104;SDS011;70664;51.472;5.712;2023-11-22T13:26:24;15.25;;;10.32;;
42104;SDS011;70664;51.472;5.712;2023-11-22T13:28:51;15.60;;;10.60;;
42104;SDS011;70664;51.472;5.712;2023-11-22T13:31:19;16.85;;;10.43;;
42104;SDS011;70664;51.472;5.712;2023-11-22T13:33:46;14.38;;;10.60;;
42104;SDS011;70664;51.472;5.712;2023-11-22T13:36:12;15.77;;;10.70;;
42104;SDS011;70664;51.472;5.712;2023-11-22T13:38:39;14.27;;;10.35;;
42104;SDS011;70664;51.472;5.712;2023-11-22T13:41:05;17.02;;;11.60;;
42104;SDS011;70664;51.472;5.712;2023-11-22T13:43:31;18.80;;;11.63;;
42104;SDS011;70664;51.472;5.712;2023-11-22T13:46:00;16.52;;;10.63;;
42104;SDS011;70664;51.472;5.712;2023-11-22T13:48:26;15.48;;;10.88;;
42104;SDS011;70664;51.472;5.712;2023-11-22T13:50:52;17.35;;;10.55;;
42104;SDS011;70664;51.472;5.712;2023-11-22T13:53:17;16.02;;;11.07;;
42104;SDS011;70664;51.472;5.712;2023-11-22T13:55:47;19.38;;;11.45;;
42104;SDS011;70664;51.472;5.712;2023-11-22T13:58:16;18.80;;;11.45;;
42104;SDS011;70664;51.472;5.712;2023-11-22T14:00:42;15.40;;;10.60;;
42104;SDS011;70664;51.472;5.712;2023-11-22T14:03:08;16.98;;;11.05;;
42104;SDS011;70664;51.472;5.712;2023-11-22T14:05:36;17.23;;;11.32;;
42104;SDS011;70664;51.472;5.712;2023-11-22T14:08:03;17.10;;;11.48;;
42104;SDS011;70664;51.472;5.712;2023-11-22T14:10:31;15.90;;;10.27;;
42104;SDS011;70664;51.472;5.712;2023-11-22T14:12:57;14.55;;;10.00;;
42104;SDS011;70664;51.472;5.712;2023-11-22T14:15:25;17.45;;;10.77;;
42104;SDS011;70664;51.472;5.712;2023-11-22T14:17:53;16.92;;;10.93;;
42104;SDS011;70664;51.472;5.712;2023-11-22T14:20:20;18.52;;;11.05;;
42104;SDS011;70664;51.472;5.712;2023-11-22T14:22:46;17.73;;;10.35;;
42104;SDS011;70664;51.472;5.712;2023-11-22T14:25:13;14.68;;;10.55;;
42104;SDS011;70664;51.472;5.712;2023-11-22T14:27:41;17.40;;;10.90;;
42104;SDS011;70664;51.472;5.712;2023-11-22T14:30:10;19.23;;;11.50;;
42104;SDS011;70664;51.472;5.712;2023-11-22T14:32:40;15.52;;;11.18;;
42104;SDS011;70664;51.472;5.712;2023-11-22T14:35:09;18.63;;;11.32;;
42104;SDS011;70664;51.472;5.712;2023-11-22T14:37:36;16.98;;;11.05;;
42104;SDS011;70664;51.472;5.712;2023-11-22T14:40:05;16.55;;;11.02;;
42104;SDS011;70664;51.472;5.712;2023-11-22T14:42:42;16.35;;;11.38;;
42104;SDS011;70664;51.472;5.712;2023-11-22T14:45:16;15.40;;;10.85;;
42104;SDS011;70664;51.472;5.712;2023-11-22T14:47:44;17.83;;;11.43;;
42104;SDS011;70664;51.472;5.712;2023-11-22T14:50:11;18.35;;;10.85;;
42104;SDS011;70664;51.472;5.712;2023-11-22T14:52:39;16.05;;;10.40;;
42104;SDS011;70664;51.472;5.712;2023-11-22T14:55:05;15.77;;;10.95;;
42104;SDS011;70664;51.472;5.712;2023-11-22T14:57:31;16.73;;;10.77;;